Jard de Esperanza, Puerto Rico
Current Conditions -  °F | °C
As of 6:53 AM on Thursday 27 Nov 2014 (Local Time) from TJNR Reporting Station
Clear Clear  
Wind Chill: 78°   Ceiling: Unl
Heat Index: 80°   Visibility: 10mi
Dew Point: 66°   Wind: 9mph
Humidity: 66%   Direction: 70°ENE
Pressure: 30.01"   Gusts: NA
Location:  18.2147°N, 65.7358°W
Report Text: TJNR 271053Z AUTO 07008KT 10SM CLR 26/19 A3001 RMK AO2 SLP162 T02560189 $
Loading
Personal Weather Stations






























Interactive Weather Map New forecast layout! Learn more

10-Day Weather Forecast

Advertisements
Track Severe Weather on mobile